sensor_id;sensor_type;location;lat;lon;timestamp;pressure;altitude;pressure_sealevel;temperature;humidity
39739;BME280;25422;48.286;8.484;2023-05-22T00:00:24;93799.66;;;10.98;100.00
39739;BME280;25422;48.286;8.484;2023-05-22T00:02:50;93798.91;;;11.04;100.00
39739;BME280;25422;48.286;8.484;2023-05-22T00:05:16;93787.91;;;11.08;100.00
39739;BME280;25422;48.286;8.484;2023-05-22T00:07:42;93792.41;;;11.14;100.00
39739;BME280;25422;48.286;8.484;2023-05-22T00:10:08;93781.22;;;11.06;100.00
39739;BME280;25422;48.286;8.484;2023-05-22T00:12:34;93792.13;;;10.94;100.00
39739;BME280;25422;48.286;8.484;2023-05-22T00:15:00;93781.16;;;10.84;100.00
39739;BME280;25422;48.286;8.484;2023-05-22T00:17:25;93776.19;;;10.59;100.00
39739;BME280;25422;48.286;8.484;2023-05-22T00:19:51;93775.81;;;10.48;100.00
39739;BME280;25422;48.286;8.484;2023-05-22T00:22:20;93774.97;;;10.47;100.00
39739;BME280;25422;48.286;8.484;2023-05-22T00:24:45;93761.53;;;10.35;100.00
39739;BME280;25422;48.286;8.484;2023-05-22T00:27:11;93766.44;;;10.30;100.00
39739;BME280;25422;48.286;8.484;2023-05-22T00:29:37;93771.91;;;10.43;100.00
39739;BME280;25422;48.286;8.484;2023-05-22T00:32:02;93772.09;;;10.42;100.00
39739;BME280;25422;48.286;8.484;2023-05-22T00:34:28;93778.94;;;10.43;100.00
39739;BME280;25422;48.286;8.484;2023-05-22T00:36:53;93772.38;;;10.24;100.00
39739;BME280;25422;48.286;8.484;2023-05-22T00:39:18;93780.13;;;10.17;100.00
39739;BME280;25422;48.286;8.484;2023-05-22T00:41:44;93778.03;;;10.12;100.00
39739;BME280;25422;48.286;8.484;2023-05-22T00:44:10;93778.66;;;10.15;100.00
39739;BME280;25422;48.286;8.484;2023-05-22T00:46:36;93772.81;;;10.12;100.00
39739;BME280;25422;48.286;8.484;2023-05-22T00:49:03;93781.63;;;10.11;100.00
39739;BME280;25422;48.286;8.484;2023-05-22T00:51:29;93781.47;;;10.13;100.00
39739;BME280;25422;48.286;8.484;2023-05-22T00:53:54;93776.41;;;10.11;100.00
39739;BME280;25422;48.286;8.484;2023-05-22T00:56:20;93774.44;;;10.13;100.00
39739;BME280;25422;48.286;8.484;2023-05-22T00:58:46;93779.97;;;10.19;100.00
39739;BME280;25422;48.286;8.484;2023-05-22T01:01:12;93793.03;;;10.19;100.00
39739;BME280;25422;48.286;8.484;2023-05-22T01:03:40;93787.63;;;10.20;100.00
39739;BME280;25422;48.286;8.484;2023-05-22T01:06:13;93789.69;;;10.25;100.00
39739;BME280;25422;48.286;8.484;2023-05-22T01:08:39;93797.25;;;10.20;100.00
39739;BME280;25422;48.286;8.484;2023-05-22T01:13:59;93790.13;;;10.13;100.00
39739;BME280;25422;48.286;8.484;2023-05-22T01:16:44;93794.53;;;10.13;100.00
39739;BME280;25422;48.286;8.484;2023-05-22T01:22:43;93795.47;;;10.43;100.00
39739;BME280;25422;48.286;8.484;2023-05-22T01:31:04;93803.84;;;10.54;100.00
39739;BME280;25422;48.286;8.484;2023-05-22T01:33:42;93811.00;;;10.60;100.00
39739;BME280;25422;48.286;8.484;2023-05-22T01:36:13;93815.94;;;10.55;100.00
39739;BME280;25422;48.286;8.484;2023-05-22T01:38:40;93805.09;;;10.58;100.00
39739;BME280;25422;48.286;8.484;2023-05-22T01:41:07;93817.19;;;10.59;100.00
39739;BME280;25422;48.286;8.484;2023-05-22T01:43:33;93812.25;;;10.64;100.00
39739;BME280;25422;48.286;8.484;2023-05-22T01:45:59;93817.78;;;10.69;100.00
39739;BME280;25422;48.286;8.484;2023-05-22T01:48:26;93818.66;;;10.61;100.00
39739;BME280;25422;48.286;8.484;2023-05-22T01:50:52;93813.97;;;10.57;100.00
39739;BME280;25422;48.286;8.484;2023-05-22T01:53:56;93827.56;;;10.52;100.00
39739;BME280;25422;48.286;8.484;2023-05-22T01:56:36;93829.28;;;10.60;100.00
39739;BME280;25422;48.286;8.484;2023-05-22T01:59:19;93827.59;;;10.67;100.00
39739;BME280;25422;48.286;8.484;2023-05-22T02:01:49;93823.00;;;10.69;100.00
39739;BME280;25422;48.286;8.484;2023-05-22T02:04:18;93820.38;;;10.69;100.00
39739;BME280;25422;48.286;8.484;2023-05-22T02:06:45;93810.72;;;10.70;100.00
39739;BME280;25422;48.286;8.484;2023-05-22T02:09:11;93812.16;;;10.72;100.00
39739;BME280;25422;48.286;8.484;2023-05-22T02:11:39;93814.34;;;10.84;100.00
39739;BME280;25422;48.286;8.484;2023-05-22T02:14:05;93818.16;;;10.96;100.00
39739;BME280;25422;48.286;8.484;2023-05-22T02:16:33;93813.25;;;11.08;100.00
39739;BME280;25422;48.286;8.484;2023-05-22T02:19:00;93821.38;;;11.13;100.00
39739;BME280;25422;48.286;8.484;2023-05-22T02:21:33;93808.84;;;11.23;100.00
39739;BME280;25422;48.286;8.484;2023-05-22T02:24:00;93805.28;;;11.31;100.00
39739;BME280;25422;48.286;8.484;2023-05-22T02:26:26;93808.44;;;11.41;100.00
39739;BME280;25422;48.286;8.484;2023-05-22T02:28:52;93802.31;;;11.34;100.00
39739;BME280;25422;48.286;8.484;2023-05-22T02:31:17;93805.28;;;11.31;100.00
39739;BME280;25422;48.286;8.484;2023-05-22T02:33:43;93799.44;;;11.29;100.00
39739;BME280;25422;48.286;8.484;2023-05-22T02:36:09;93803.69;;;11.30;100.00
39739;BME280;25422;48.286;8.484;2023-05-22T02:38:37;93793.44;;;11.35;100.00
39739;BME280;25422;48.286;8.484;2023-05-22T02:41:02;93806.44;;;11.43;100.00
39739;BME280;25422;48.286;8.484;2023-05-22T02:43:28;93797.69;;;11.36;100.00
39739;BME280;25422;48.286;8.484;2023-05-22T02:45:53;93802.31;;;11.34;100.00
39739;BME280;25422;48.286;8.484;2023-05-22T02:48:19;93795.00;;;11.29;100.00
39739;BME280;25422;48.286;8.484;2023-05-22T02:50:44;93804.03;;;11.27;100.00
39739;BME280;25422;48.286;8.484;2023-05-22T02:53:12;93797.00;;;11.27;100.00
39739;BME280;25422;48.286;8.484;2023-05-22T02:55:40;93803.84;;;11.28;100.00
39739;BME280;25422;48.286;8.484;2023-05-22T02:58:10;93805.09;;;11.33;100.00
39739;BME280;25422;48.286;8.484;2023-05-22T03:00:36;93807.63;;;11.41;100.00
39739;BME280;25422;48.286;8.484;2023-05-22T03:03:03;93811.63;;;11.37;100.00
39739;BME280;25422;48.286;8.484;2023-05-22T03:05:28;93813.06;;;11.24;100.00
39739;BME280;25422;48.286;8.484;2023-05-22T03:07:53;93809.75;;;11.16;100.00
39739;BME280;25422;48.286;8.484;2023-05-22T03:10:19;93811.91;;;11.12;100.00
39739;BME280;25422;48.286;8.484;2023-05-22T03:12:44;93804.41;;;11.09;100.00
39739;BME280;25422;48.286;8.484;2023-05-22T03:15:10;93803.03;;;11.28;100.00
39739;BME280;25422;48.286;8.484;2023-05-22T03:17:37;93799.78;;;11.41;100.00
39739;BME280;25422;48.286;8.484;2023-05-22T03:20:03;93798.13;;;11.55;100.00
39739;BME280;25422;48.286;8.484;2023-05-22T03:22:29;93795.66;;;11.68;100.00
39739;BME280;25422;48.286;8.484;2023-05-22T03:24:55;93796.59;;;11.82;100.00
39739;BME280;25422;48.286;8.484;2023-05-22T03:27:20;93801.50;;;11.70;100.00
39739;BME280;25422;48.286;8.484;2023-05-22T03:29:47;93788.88;;;11.59;100.00
39739;BME280;25422;48.286;8.484;2023-05-22T03:32:14;93790.63;;;11.52;100.00
39739;BME280;25422;48.286;8.484;2023-05-22T03:34:40;93793.59;;;11.48;100.00
39739;BME280;25422;48.286;8.484;2023-05-22T03:37:08;93784.75;;;11.50;100.00
39739;BME280;25422;48.286;8.484;2023-05-22T03:39:34;93791.13;;;11.62;100.00
39739;BME280;25422;48.286;8.484;2023-05-22T03:42:09;93785.03;;;11.76;100.00
39739;BME280;25422;48.286;8.484;2023-05-22T03:44:34;93794.75;;;11.82;100.00
39739;BME280;25422;48.286;8.484;2023-05-22T03:47:00;93794.84;;;11.89;100.00
39739;BME280;25422;48.286;8.484;2023-05-22T03:49:25;93795.66;;;11.90;100.00
39739;BME280;25422;48.286;8.484;2023-05-22T03:51:51;93793.78;;;11.84;100.00
39739;BME280;25422;48.286;8.484;2023-05-22T03:54:16;93783.16;;;11.70;100.00
39739;BME280;25422;48.286;8.484;2023-05-22T03:56:42;93786.47;;;11.57;100.00
39739;BME280;25422;48.286;8.484;2023-05-22T03:59:08;93789.44;;;11.54;100.00
39739;BME280;25422;48.286;8.484;2023-05-22T04:01:34;93788.19;;;11.50;100.00
39739;BME280;25422;48.286;8.484;2023-05-22T04:03:59;93791.25;;;11.54;100.00
39739;BME280;25422;48.286;8.484;2023-05-22T04:06:25;93790.69;;;11.58;100.00
39739;BME280;25422;48.286;8.484;2023-05-22T04:08:50;93792.25;;;11.74;100.00
39739;BME280;25422;48.286;8.484;2023-05-22T04:11:16;93791.03;;;11.92;100.00
39739;BME280;25422;48.286;8.484;2023-05-22T04:13:43;93794.00;;;12.04;100.00
39739;BME280;25422;48.286;8.484;2023-05-22T04:16:08;93799.56;;;12.16;100.00
39739;BME280;25422;48.286;8.484;2023-05-22T04:18:36;93802.78;;;12.18;100.00
39739;BME280;25422;48.286;8.484;2023-05-22T04:21:01;93810.84;;;12.16;100.00
39739;BME280;25422;48.286;8.484;2023-05-22T04:23:27;93804.34;;;12.12;100.00
39739;BME280;25422;48.286;8.484;2023-05-22T04:25:52;93816.28;;;12.14;100.00
39739;BME280;25422;48.286;8.484;2023-05-22T04:28:18;93813.22;;;12.11;100.00
39739;BME280;25422;48.286;8.484;2023-05-22T04:30:49;93814.03;;;12.11;100.00
39739;BME280;25422;48.286;8.484;2023-05-22T04:33:14;93815.09;;;12.17;100.00
39739;BME280;25422;48.286;8.484;2023-05-22T04:35:40;93817.00;;;12.30;100.00
39739;BME280;25422;48.286;8.484;2023-05-22T04:38:06;93823.88;;;12.31;100.00
39739;BME280;25422;48.286;8.484;2023-05-22T04:40:31;93816.06;;;12.38;100.00
39739;BME280;25422;48.286;8.484;2023-05-22T04:43:02;93825.25;;;12.48;100.00
39739;BME280;25422;48.286;8.484;2023-05-22T04:45:29;93824.06;;;12.51;100.00
39739;BME280;25422;48.286;8.484;2023-05-22T04:47:56;93835.78;;;12.55;100.00
39739;BME280;25422;48.286;8.484;2023-05-22T04:50:22;93831.34;;;12.56;100.00
39739;BME280;25422;48.286;8.484;2023-05-22T04:52:48;93832.19;;;12.56;100.00
39739;BME280;25422;48.286;8.484;2023-05-22T04:55:13;93826.88;;;12.50;100.00
39739;BME280;25422;48.286;8.484;2023-05-22T04:57:39;93836.53;;;12.49;100.00
39739;BME280;25422;48.286;8.484;2023-05-22T05:00:05;93838.88;;;12.59;100.00
39739;BME280;25422;48.286;8.484;2023-05-22T05:02:33;93829.97;;;12.60;100.00
39739;BME280;25422;48.286;8.484;2023-05-22T05:04:58;93837.47;;;12.63;100.00
39739;BME280;25422;48.286;8.484;2023-05-22T05:07:24;93838.72;;;12.67;100.00
39739;BME280;25422;48.286;8.484;2023-05-22T05:09:50;93854.28;;;12.69;100.00
39739;BME280;25422;48.286;8.484;2023-05-22T05:12:15;93851.66;;;12.69;100.00
39739;BME280;25422;48.286;8.484;2023-05-22T05:14:41;93853.69;;;12.73;100.00
39739;BME280;25422;48.286;8.484;2023-05-22T05:17:06;93856.72;;;12.70;100.00
39739;BME280;25422;48.286;8.484;2023-05-22T05:19:31;93853.88;;;12.72;100.00
39739;BME280;25422;48.286;8.484;2023-05-22T05:21:59;93835.13;;;12.75;100.00
39739;BME280;25422;48.286;8.484;2023-05-22T05:24:24;93842.00;;;12.76;100.00
39739;BME280;25422;48.286;8.484;2023-05-22T05:26:50;93832.69;;;12.73;100.00
39739;BME280;25422;48.286;8.484;2023-05-22T05:29:17;93833.94;;;12.77;100.00
39739;BME280;25422;48.286;8.484;2023-05-22T05:31:52;93835.41;;;12.87;100.00
39739;BME280;25422;48.286;8.484;2023-05-22T05:34:53;93835.56;;;12.78;100.00
39739;BME280;25422;48.286;8.484;2023-05-22T05:37:28;93837.94;;;12.73;100.00
39739;BME280;25422;48.286;8.484;2023-05-22T05:39:57;93835.59;;;12.57;100.00
39739;BME280;25422;48.286;8.484;2023-05-22T05:42:23;93833.69;;;12.44;100.00
39739;BME280;25422;48.286;8.484;2023-05-22T05:44:48;93834.88;;;12.41;100.00
39739;BME280;25422;48.286;8.484;2023-05-22T05:47:14;93830.25;;;12.43;100.00
39739;BME280;25422;48.286;8.484;2023-05-22T05:49:40;93841.69;;;12.64;100.00
39739;BME280;25422;48.286;8.484;2023-05-22T05:52:05;93838.88;;;12.65;100.00
39739;BME280;25422;48.286;8.484;2023-05-22T05:54:33;93832.03;;;12.64;100.00
39739;BME280;25422;48.286;8.484;2023-05-22T05:57:05;93832.22;;;12.63;100.00
39739;BME280;25422;48.286;8.484;2023-05-22T05:59:30;93827.94;;;12.84;100.00
39739;BME280;25422;48.286;8.484;2023-05-22T06:02:14;93821.19;;;13.03;100.00
39739;BME280;25422;48.286;8.484;2023-05-22T06:04:40;93814.28;;;13.02;100.00
39739;BME280;25422;48.286;8.484;2023-05-22T06:07:09;93817.72;;;13.02;100.00
39739;BME280;25422;48.286;8.484;2023-05-22T06:09:43;93825.47;;;13.10;100.00
39739;BME280;25422;48.286;8.484;2023-05-22T06:12:14;93826.66;;;13.36;100.00
39739;BME280;25422;48.286;8.484;2023-05-22T06:14:43;93837.19;;;13.49;100.00
39739;BME280;25422;48.286;8.484;2023-05-22T06:17:08;93833.63;;;13.64;100.00
39739;BME280;25422;48.286;8.484;2023-05-22T06:19:36;93839.34;;;13.81;100.00
39739;BME280;25422;48.286;8.484;2023-05-22T06:22:02;93841.59;;;13.91;100.00
39739;BME280;25422;48.286;8.484;2023-05-22T06:24:28;93852.13;;;13.97;100.00
39739;BME280;25422;48.286;8.484;2023-05-22T06:26:55;93866.09;;;14.05;100.00
39739;BME280;25422;48.286;8.484;2023-05-22T06:29:20;93857.63;;;14.03;100.00
39739;BME280;25422;48.286;8.484;2023-05-22T06:31:46;93857.00;;;14.07;100.00
39739;BME280;25422;48.286;8.484;2023-05-22T06:34:15;93856.06;;;14.28;100.00
39739;BME280;25422;48.286;8.484;2023-05-22T06:36:40;93853.44;;;14.48;100.00
39739;BME280;25422;48.286;8.484;2023-05-22T06:39:06;93853.09;;;14.65;100.00
39739;BME280;25422;48.286;8.484;2023-05-22T06:42:01;93851.63;;;14.82;100.00
39739;BME280;25422;48.286;8.484;2023-05-22T06:44:46;93855.88;;;14.90;100.00
39739;BME280;25422;48.286;8.484;2023-05-22T06:47:12;93854.88;;;14.98;100.00
39739;BME280;25422;48.286;8.484;2023-05-22T06:49:39;93854.25;;;15.03;100.00
39739;BME280;25422;48.286;8.484;2023-05-22T06:52:05;93860.13;;;15.11;100.00
39739;BME280;25422;48.286;8.484;2023-05-22T06:54:31;93859.31;;;15.11;100.00
39739;BME280;25422;48.286;8.484;2023-05-22T06:56:56;93859.91;;;15.20;100.00
39739;BME280;25422;48.286;8.484;2023-05-22T06:59:23;93867.81;;;15.20;100.00
39739;BME280;25422;48.286;8.484;2023-05-22T07:02:18;93863.31;;;15.33;100.00
39739;BME280;25422;48.286;8.484;2023-05-22T07:05:09;93874.63;;;15.47;100.00
39739;BME280;25422;48.286;8.484;2023-05-22T07:07:46;93873.41;;;15.57;100.00
39739;BME280;25422;48.286;8.484;2023-05-22T07:10:12;93879.41;;;15.77;100.00
39739;BME280;25422;48.286;8.484;2023-05-22T07:12:37;93877.38;;;15.93;100.00
39739;BME280;25422;48.286;8.484;2023-05-22T07:15:03;93878.53;;;16.04;100.00
39739;BME280;25422;48.286;8.484;2023-05-22T07:17:30;93866.75;;;16.06;100.00
39739;BME280;25422;48.286;8.484;2023-05-22T07:19:56;93872.28;;;16.30;100.00
39739;BME280;25422;48.286;8.484;2023-05-22T07:22:21;93872.56;;;16.54;100.00
39739;BME280;25422;48.286;8.484;2023-05-22T07:24:47;93872.88;;;16.64;100.00
39739;BME280;25422;48.286;8.484;2023-05-22T07:27:15;93878.00;;;16.91;100.00
39739;BME280;25422;48.286;8.484;2023-05-22T07:29:40;93874.34;;;16.92;100.00
39739;BME280;25422;48.286;8.484;2023-05-22T07:32:07;93872.44;;;17.24;100.00
39739;BME280;25422;48.286;8.484;2023-05-22T07:34:34;93873.31;;;17.55;100.00
39739;BME280;25422;48.286;8.484;2023-05-22T07:37:10;93881.72;;;17.70;100.00
39739;BME280;25422;48.286;8.484;2023-05-22T07:39:36;93881.63;;;18.14;100.00
39739;BME280;25422;48.286;8.484;2023-05-22T07:42:04;93876.94;;;18.28;100.00
39739;BME280;25422;48.286;8.484;2023-05-22T07:44:32;93892.03;;;18.28;100.00
39739;BME280;25422;48.286;8.484;2023-05-22T07:46:58;93892.22;;;18.45;100.00
39739;BME280;25422;48.286;8.484;2023-05-22T07:49:26;93889.44;;;17.91;100.00
39739;BME280;25422;48.286;8.484;2023-05-22T07:51:52;93894.88;;;17.96;100.00
39739;BME280;25422;48.286;8.484;2023-05-22T07:54:19;93881.06;;;18.12;100.00
39739;BME280;25422;48.286;8.484;2023-05-22T07:56:48;93884.16;;;18.51;100.00
39739;BME280;25422;48.286;8.484;2023-05-22T07:59:15;93888.25;;;18.66;100.00
39739;BME280;25422;48.286;8.484;2023-05-22T08:01:44;93883.41;;;18.32;100.00
39739;BME280;25422;48.286;8.484;2023-05-22T08:04:09;93886.38;;;18.54;100.00
39739;BME280;25422;48.286;8.484;2023-05-22T08:06:34;93878.34;;;19.15;100.00
39739;BME280;25422;48.286;8.484;2023-05-22T08:09:00;93879.38;;;19.50;100.00
39739;BME280;25422;48.286;8.484;2023-05-22T08:11:27;93878.63;;;19.78;100.00
39739;BME280;25422;48.286;8.484;2023-05-22T08:13:52;93880.63;;;19.59;100.00
39739;BME280;25422;48.286;8.484;2023-05-22T08:16:18;93889.28;;;19.19;100.00
39739;BME280;25422;48.286;8.484;2023-05-22T08:18:43;93886.41;;;19.56;100.00
39739;BME280;25422;48.286;8.484;2023-05-22T08:21:09;93883.84;;;20.26;100.00
39739;BME280;25422;48.286;8.484;2023-05-22T08:23:34;93887.63;;;19.77;100.00
39739;BME280;25422;48.286;8.484;2023-05-22T08:26:00;93889.50;;;19.65;100.00
39739;BME280;25422;48.286;8.484;2023-05-22T08:28:26;93885.78;;;19.90;100.00
39739;BME280;25422;48.286;8.484;2023-05-22T08:30:51;93889.91;;;20.09;100.00
39739;BME280;25422;48.286;8.484;2023-05-22T08:33:17;93883.19;;;20.47;100.00
39739;BME280;25422;48.286;8.484;2023-05-22T08:35:43;93885.19;;;19.99;100.00
39739;BME280;25422;48.286;8.484;2023-05-22T08:38:09;93887.06;;;20.57;100.00
39739;BME280;25422;48.286;8.484;2023-05-22T08:40:35;93885.53;;;21.06;100.00
39739;BME280;25422;48.286;8.484;2023-05-22T08:43:01;93886.50;;;21.00;100.00
39739;BME280;25422;48.286;8.484;2023-05-22T08:45:27;93886.50;;;22.13;100.00
39739;BME280;25422;48.286;8.484;2023-05-22T08:47:54;93882.13;;;22.78;100.00
39739;BME280;25422;48.286;8.484;2023-05-22T08:50:23;93878.22;;;23.99;96.36
39739;BME280;25422;48.286;8.484;2023-05-22T08:52:54;93878.75;;;25.36;79.44
39739;BME280;25422;48.286;8.484;2023-05-22T08:55:21;93880.09;;;25.18;76.41
39739;BME280;25422;48.286;8.484;2023-05-22T08:57:48;93883.31;;;25.46;73.46
39739;BME280;25422;48.286;8.484;2023-05-22T09:00:15;93880.56;;;25.87;72.85
39739;BME280;25422;48.286;8.484;2023-05-22T09:02:41;93880.19;;;26.25;68.99
39739;BME280;25422;48.286;8.484;2023-05-22T09:05:07;93884.38;;;25.40;76.02
39739;BME280;25422;48.286;8.484;2023-05-22T09:07:33;93881.59;;;26.02;67.40
39739;BME280;25422;48.286;8.484;2023-05-22T09:09:59;93872.84;;;25.29;69.99
39739;BME280;25422;48.286;8.484;2023-05-22T09:12:25;93873.91;;;25.59;70.32
39739;BME280;25422;48.286;8.484;2023-05-22T09:14:53;93878.16;;;25.75;68.43
39739;BME280;25422;48.286;8.484;2023-05-22T09:17:20;93869.91;;;24.89;69.43
39739;BME280;25422;48.286;8.484;2023-05-22T09:19:46;93869.38;;;25.29;66.94
39739;BME280;25422;48.286;8.484;2023-05-22T09:22:12;93870.97;;;24.73;68.00
39739;BME280;25422;48.286;8.484;2023-05-22T09:24:41;93877.59;;;25.79;67.95
39739;BME280;25422;48.286;8.484;2023-05-22T09:27:08;93874.56;;;26.16;61.43
39739;BME280;25422;48.286;8.484;2023-05-22T09:29:51;93874.88;;;26.04;58.80
39739;BME280;25422;48.286;8.484;2023-05-22T09:32:17;93869.94;;;25.41;59.71
39739;BME280;25422;48.286;8.484;2023-05-22T09:34:43;93871.25;;;25.23;59.49
39739;BME280;25422;48.286;8.484;2023-05-22T09:37:10;93873.28;;;26.58;54.69
39739;BME280;25422;48.286;8.484;2023-05-22T09:39:43;93870.97;;;24.68;57.59
39739;BME280;25422;48.286;8.484;2023-05-22T09:42:09;93874.47;;;25.40;57.68
39739;BME280;25422;48.286;8.484;2023-05-22T09:44:38;93872.97;;;24.35;57.90
39739;BME280;25422;48.286;8.484;2023-05-22T09:47:07;93865.72;;;24.20;59.64
39739;BME280;25422;48.286;8.484;2023-05-22T09:49:44;93858.94;;;25.17;57.21
39739;BME280;25422;48.286;8.484;2023-05-22T09:52:10;93866.56;;;24.26;56.01
39739;BME280;25422;48.286;8.484;2023-05-22T09:54:50;93867.16;;;24.53;57.40
39739;BME280;25422;48.286;8.484;2023-05-22T09:57:24;93853.50;;;24.39;56.08
39739;BME280;25422;48.286;8.484;2023-05-22T09:59:53;93855.44;;;24.65;53.90
39739;BME280;25422;48.286;8.484;2023-05-22T10:02:23;93858.41;;;25.25;52.55
39739;BME280;25422;48.286;8.484;2023-05-22T10:04:48;93848.34;;;26.63;45.40
39739;BME280;25422;48.286;8.484;2023-05-22T10:07:17;93853.44;;;26.59;49.42
39739;BME280;25422;48.286;8.484;2023-05-22T10:09:47;93860.56;;;25.07;50.03
39739;BME280;25422;48.286;8.484;2023-05-22T10:12:16;93859.09;;;25.92;49.39
39739;BME280;25422;48.286;8.484;2023-05-22T10:14:44;93861.16;;;26.16;49.69
39739;BME280;25422;48.286;8.484;2023-05-22T10:17:10;93853.13;;;27.06;45.40
39739;BME280;25422;48.286;8.484;2023-05-22T10:19:37;93853.66;;;27.72;44.75
39739;BME280;25422;48.286;8.484;2023-05-22T10:22:03;93855.13;;;26.45;48.60
39739;BME280;25422;48.286;8.484;2023-05-22T10:24:29;93855.44;;;25.42;46.19
39739;BME280;25422;48.286;8.484;2023-05-22T10:26:55;93854.38;;;25.22;49.29
39739;BME280;25422;48.286;8.484;2023-05-22T10:29:27;93853.06;;;24.79;51.74
39739;BME280;25422;48.286;8.484;2023-05-22T10:32:03;93846.06;;;25.55;45.74
39739;BME280;25422;48.286;8.484;2023-05-22T10:34:56;93850.25;;;24.37;45.02
39739;BME280;25422;48.286;8.484;2023-05-22T10:37:28;93849.75;;;24.46;45.23
39739;BME280;25422;48.286;8.484;2023-05-22T10:40:04;93839.41;;;24.85;42.66
39739;BME280;25422;48.286;8.484;2023-05-22T10:42:32;93840.50;;;24.89;43.58
39739;BME280;25422;48.286;8.484;2023-05-22T10:45:02;93836.44;;;25.49;39.62
39739;BME280;25422;48.286;8.484;2023-05-22T10:47:31;93833.44;;;25.76;38.36
39739;BME280;25422;48.286;8.484;2023-05-22T10:50:09;93825.84;;;26.04;39.19
39739;BME280;25422;48.286;8.484;2023-05-22T10:52:36;93831.16;;;26.14;39.71
39739;BME280;25422;48.286;8.484;2023-05-22T10:55:08;93821.63;;;25.82;41.33
39739;BME280;25422;48.286;8.484;2023-05-22T10:57:38;93815.03;;;24.97;40.62
39739;BME280;25422;48.286;8.484;2023-05-22T11:00:16;93820.63;;;25.42;44.27
39739;BME280;25422;48.286;8.484;2023-05-22T11:02:47;93815.78;;;25.59;36.98
39739;BME280;25422;48.286;8.484;2023-05-22T11:07:45;93808.25;;;26.37;41.37
39739;BME280;25422;48.286;8.484;2023-05-22T11:10:10;93802.31;;;27.20;37.13
39739;BME280;25422;48.286;8.484;2023-05-22T11:12:35;93805.56;;;28.38;34.23
39739;BME280;25422;48.286;8.484;2023-05-22T11:15:05;93799.66;;;27.92;34.70
39739;BME280;25422;48.286;8.484;2023-05-22T11:17:33;93799.25;;;28.67;34.54
39739;BME280;25422;48.286;8.484;2023-05-22T11:20:17;93794.53;;;27.72;37.71
39739;BME280;25422;48.286;8.484;2023-05-22T11:22:59;93792.69;;;27.67;35.33
39739;BME280;25422;48.286;8.484;2023-05-22T11:25:26;93794.81;;;28.57;34.27
39739;BME280;25422;48.286;8.484;2023-05-22T11:27:52;93797.59;;;27.31;35.01
39739;BME280;25422;48.286;8.484;2023-05-22T11:30:19;93798.53;;;28.42;32.56
39739;BME280;25422;48.286;8.484;2023-05-22T11:32:45;93796.97;;;28.93;32.16
39739;BME280;25422;48.286;8.484;2023-05-22T11:35:19;93798.97;;;28.68;30.67
39739;BME280;25422;48.286;8.484;2023-05-22T11:37:46;93805.13;;;29.21;32.00
39739;BME280;25422;48.286;8.484;2023-05-22T11:40:16;93804.69;;;28.81;32.63
39739;BME280;25422;48.286;8.484;2023-05-22T11:42:42;93802.75;;;29.00;33.68
39739;BME280;25422;48.286;8.484;2023-05-22T11:45:08;93801.25;;;27.45;34.70
39739;BME280;25422;48.286;8.484;2023-05-22T11:47:34;93807.63;;;27.54;35.44
39739;BME280;25422;48.286;8.484;2023-05-22T11:50:00;93811.44;;;27.72;34.87
39739;BME280;25422;48.286;8.484;2023-05-22T11:52:30;93804.91;;;26.56;37.86
39739;BME280;25422;48.286;8.484;2023-05-22T11:54:56;93816.03;;;25.68;39.17
39739;BME280;25422;48.286;8.484;2023-05-22T11:57:22;93802.94;;;25.62;41.01
39739;BME280;25422;48.286;8.484;2023-05-22T11:59:48;93810.56;;;25.99;40.32
39739;BME280;25422;48.286;8.484;2023-05-22T12:02:15;93803.31;;;26.10;38.65
39739;BME280;25422;48.286;8.484;2023-05-22T12:04:40;93793.41;;;26.50;38.06
39739;BME280;25422;48.286;8.484;2023-05-22T12:07:06;93793.75;;;25.83;39.27
39739;BME280;25422;48.286;8.484;2023-05-22T12:09:32;93785.97;;;26.37;38.72
39739;BME280;25422;48.286;8.484;2023-05-22T12:11:58;93790.88;;;26.64;38.70
39739;BME280;25422;48.286;8.484;2023-05-22T12:14:27;93782.91;;;27.52;38.08
39739;BME280;25422;48.286;8.484;2023-05-22T12:16:53;93782.69;;;27.73;37.44
39739;BME280;25422;48.286;8.484;2023-05-22T12:19:19;93794.09;;;27.65;38.28
39739;BME280;25422;48.286;8.484;2023-05-22T12:21:44;93794.56;;;27.91;38.23
39739;BME280;25422;48.286;8.484;2023-05-22T12:24:10;93791.25;;;27.99;37.82
39739;BME280;25422;48.286;8.484;2023-05-22T12:26:36;93789.31;;;27.56;37.08
39739;BME280;25422;48.286;8.484;2023-05-22T12:29:03;93784.56;;;26.89;39.42
39739;BME280;25422;48.286;8.484;2023-05-22T12:31:33;93792.31;;;25.10;44.52
39739;BME280;25422;48.286;8.484;2023-05-22T12:34:03;93793.00;;;24.07;48.02
39739;BME280;25422;48.286;8.484;2023-05-22T12:36:33;93796.38;;;23.82;47.25
39739;BME280;25422;48.286;8.484;2023-05-22T12:38:59;93794.94;;;23.59;49.01
39739;BME280;25422;48.286;8.484;2023-05-22T12:41:24;93797.84;;;23.57;48.45
39739;BME280;25422;48.286;8.484;2023-05-22T12:43:50;93797.75;;;23.90;50.41
39739;BME280;25422;48.286;8.484;2023-05-22T12:46:15;93800.34;;;24.89;47.40
39739;BME280;25422;48.286;8.484;2023-05-22T12:48:41;93797.97;;;26.00;45.59
39739;BME280;25422;48.286;8.484;2023-05-22T12:51:06;93790.47;;;27.99;44.07
39739;BME280;25422;48.286;8.484;2023-05-22T12:53:34;93798.00;;;28.21;41.77
39739;BME280;25422;48.286;8.484;2023-05-22T12:56:00;93807.94;;;28.64;41.54
39739;BME280;25422;48.286;8.484;2023-05-22T12:58:25;93806.06;;;28.21;41.99
39739;BME280;25422;48.286;8.484;2023-05-22T13:00:51;93811.19;;;27.93;43.22
39739;BME280;25422;48.286;8.484;2023-05-22T13:03:16;93809.03;;;27.71;43.58
39739;BME280;25422;48.286;8.484;2023-05-22T13:05:42;93812.16;;;28.07;43.03
39739;BME280;25422;48.286;8.484;2023-05-22T13:08:07;93812.69;;;27.56;43.58
39739;BME280;25422;48.286;8.484;2023-05-22T13:10:32;93816.94;;;27.86;44.91